createdAt,value
2023-06-03T00:00:15.393Z,1633.00
2023-06-03T00:01:15.480Z,1612.00
2023-06-03T00:02:15.524Z,1670.00
2023-06-03T00:03:15.568Z,1715.00
2023-06-03T00:04:15.583Z,1694.00
2023-06-03T00:05:15.573Z,1748.00
2023-06-03T00:06:15.626Z,1788.00
2023-06-03T00:07:15.661Z,1835.00
2023-06-03T00:08:15.695Z,1874.00
2023-06-03T00:09:15.728Z,1867.00
2023-06-03T00:10:15.765Z,1871.00
2023-06-03T00:11:15.818Z,1860.00
2023-06-03T00:12:15.851Z,1879.00
2023-06-03T00:13:15.875Z,1910.00
2023-06-03T00:14:15.911Z,1973.00
2023-06-03T00:15:15.959Z,1999.00
2023-06-03T00:16:15.986Z,1993.00
2023-06-03T00:17:15.996Z,1958.00
2023-06-03T00:18:16.008Z,1915.00
2023-06-03T00:19:16.027Z,1890.00
2023-06-03T00:20:16.062Z,1867.00
2023-06-03T00:21:16.093Z,1853.00
2023-06-03T00:22:16.151Z,1822.00
2023-06-03T00:23:16.172Z,1866.00
2023-06-03T00:24:16.198Z,1871.00
2023-06-03T00:25:16.223Z,1850.00
2023-06-03T00:26:16.276Z,1825.00
2023-06-03T00:27:16.343Z,1800.00
2023-06-03T00:28:16.389Z,1775.00
2023-06-03T00:29:16.446Z,1787.00
2023-06-03T00:30:16.480Z,1826.00
2023-06-03T00:31:16.574Z,1802.00
2023-06-03T00:32:16.598Z,1772.00
2023-06-03T00:33:16.750Z,1704.00
2023-06-03T00:34:16.742Z,1713.00
2023-06-03T00:35:16.781Z,1688.00
2023-06-03T00:36:16.834Z,1704.00
2023-06-03T00:37:16.874Z,1697.00
2023-06-03T00:38:16.960Z,1711.00
2023-06-03T00:39:16.984Z,1724.00
2023-06-03T00:40:17.042Z,1741.00
2023-06-03T00:41:17.093Z,1745.00
2023-06-03T00:42:17.156Z,1762.00
2023-06-03T00:43:17.223Z,1761.00
2023-06-03T00:44:17.295Z,1754.00
2023-06-03T00:45:17.341Z,1775.00
2023-06-03T00:46:17.503Z,1757.00
2023-06-03T00:47:17.471Z,1745.00
2023-06-03T00:48:17.521Z,1763.00
2023-06-03T00:49:17.578Z,1774.00
2023-06-03T00:50:17.641Z,1769.00
2023-06-03T00:51:17.698Z,1750.00
2023-06-03T00:52:17.785Z,1755.00
2023-06-03T00:53:17.820Z,1766.00
2023-06-03T00:54:17.855Z,1777.00
2023-06-03T00:55:17.910Z,1772.00
2023-06-03T00:56:17.964Z,1761.00
2023-06-03T00:57:18.008Z,1776.00
2023-06-03T00:58:18.042Z,1837.00
2023-06-03T00:59:18.078Z,1857.00
2023-06-03T01:00:18.105Z,1915.00
2023-06-03T01:01:18.177Z,1930.00
2023-06-03T01:02:18.214Z,1930.00
2023-06-03T01:03:18.298Z,1931.00
2023-06-03T01:04:18.275Z,1869.00
2023-06-03T01:05:18.245Z,1874.00
2023-06-03T01:06:18.261Z,1904.00
2023-06-03T01:07:18.283Z,1863.00
2023-06-03T01:08:18.297Z,1935.00
2023-06-03T01:09:18.322Z,1920.00
2023-06-03T01:10:18.331Z,1927.00
2023-06-03T01:11:18.359Z,1911.00
2023-06-03T01:12:18.371Z,1932.00
2023-06-03T01:13:18.388Z,1953.00
2023-06-03T01:14:18.392Z,1960.00
2023-06-03T01:15:18.430Z,1937.00
2023-06-03T01:16:18.499Z,1937.00
2023-06-03T01:17:18.467Z,1958.00
2023-06-03T01:18:18.446Z,1941.00
2023-06-03T01:19:18.470Z,1949.00
2023-06-03T01:20:18.468Z,2014.00
2023-06-03T01:21:18.485Z,2050.00
2023-06-03T01:22:18.513Z,2093.00
2023-06-03T01:23:18.543Z,2156.00
2023-06-03T01:24:18.524Z,2185.00
2023-06-03T01:25:18.513Z,2189.00
2023-06-03T01:26:18.529Z,2189.00
2023-06-03T01:27:18.565Z,2240.00
2023-06-03T01:28:18.571Z,2288.00
2023-06-03T01:29:18.540Z,2342.00
2023-06-03T01:30:18.565Z,2391.00
2023-06-03T01:31:18.619Z,2442.00
2023-06-03T01:32:18.583Z,2522.00
2023-06-03T01:33:18.575Z,2567.00
2023-06-03T01:34:18.572Z,2623.00
2023-06-03T01:35:18.584Z,2634.00
2023-06-03T01:36:18.600Z,2674.00
2023-06-03T01:37:18.585Z,2692.00
2023-06-03T01:38:18.602Z,2746.00
2023-06-03T01:39:18.616Z,2779.00
2023-06-03T01:40:18.595Z,2813.00
2023-06-03T01:41:18.606Z,2843.00
2023-06-03T01:42:18.650Z,2901.00
2023-06-03T01:43:18.640Z,2936.00
2023-06-03T01:44:18.656Z,2979.00
2023-06-03T01:45:18.700Z,3019.00
2023-06-03T01:46:18.727Z,3033.00
2023-06-03T01:47:18.730Z,3035.00
2023-06-03T01:48:18.765Z,3022.00
2023-06-03T01:49:18.809Z,3040.00
2023-06-03T01:50:18.833Z,3061.00
2023-06-03T01:51:18.863Z,3104.00
2023-06-03T01:52:18.900Z,3102.00
2023-06-03T01:53:18.928Z,3119.00
2023-06-03T01:54:18.984Z,3133.00
2023-06-03T01:55:18.990Z,3171.00
2023-06-03T01:56:19.056Z,3151.00
2023-06-03T01:57:19.046Z,3164.00
2023-06-03T01:58:19.061Z,3122.00
2023-06-03T01:59:19.099Z,3102.00
2023-06-03T02:00:19.120Z,3153.00
2023-06-03T02:01:19.176Z,3133.00
2023-06-03T02:02:19.248Z,3094.00
2023-06-03T02:03:19.237Z,3126.00
2023-06-03T02:04:19.226Z,3177.00
2023-06-03T02:05:19.248Z,3208.00
2023-06-03T02:06:19.818Z,3193.00
2023-06-03T02:07:19.262Z,3202.00
2023-06-03T02:08:19.297Z,3239.00
2023-06-03T02:09:19.284Z,3246.00
2023-06-03T02:10:19.320Z,3226.00
2023-06-03T02:11:19.321Z,3262.00
2023-06-03T02:12:19.334Z,3308.00
2023-06-03T02:13:19.374Z,3321.00
2023-06-03T02:14:19.412Z,3349.00
2023-06-03T02:15:19.448Z,3410.00
2023-06-03T02:16:19.553Z,3456.00
2023-06-03T02:17:19.533Z,3465.00
2023-06-03T02:18:19.586Z,3500.00
2023-06-03T02:19:19.620Z,3493.00
2023-06-03T02:20:19.614Z,3494.00
2023-06-03T02:21:19.597Z,3499.00
2023-06-03T02:22:19.631Z,3507.00
2023-06-03T02:23:19.648Z,3504.00
2023-06-03T02:24:19.581Z,3523.00
2023-06-03T02:25:19.578Z,3500.00
2023-06-03T02:26:19.567Z,3528.00
2023-06-03T02:27:19.573Z,3525.00
2023-06-03T02:28:19.557Z,3531.00
2023-06-03T02:29:19.552Z,3533.00
2023-06-03T02:30:19.542Z,3540.00
2023-06-03T02:31:19.595Z,3558.00
2023-06-03T02:32:19.538Z,3596.00
2023-06-03T02:33:19.522Z,3658.00
2023-06-03T02:34:19.523Z,3704.00
2023-06-03T02:35:19.518Z,3747.00
2023-06-03T02:36:19.512Z,3751.00
2023-06-03T02:37:19.506Z,3742.00
2023-06-03T02:38:19.505Z,3712.00
2023-06-03T02:39:19.534Z,3698.00
2023-06-03T02:40:19.599Z,3672.00
2023-06-03T02:41:19.667Z,3676.00
2023-06-03T02:42:19.723Z,3683.00
2023-06-03T02:43:19.782Z,3628.00
2023-06-03T02:44:19.841Z,3565.00
2023-06-03T02:45:19.885Z,3610.00
2023-06-03T02:46:19.961Z,3614.00
2023-06-03T02:47:20.037Z,3646.00
2023-06-03T02:48:20.045Z,3682.00
2023-06-03T02:49:20.119Z,3679.00
2023-06-03T02:50:20.157Z,3683.00
2023-06-03T02:51:20.225Z,3698.00
2023-06-03T02:52:20.290Z,3671.00
2023-06-03T02:53:20.332Z,3629.00
2023-06-03T02:54:20.376Z,3653.00
2023-06-03T02:55:20.433Z,3696.00
2023-06-03T02:56:20.510Z,3731.00
2023-06-03T02:57:20.540Z,3738.00
2023-06-03T02:58:20.594Z,3697.00
2023-06-03T02:59:20.692Z,3691.00
2023-06-03T03:00:20.733Z,3608.00
2023-06-03T03:01:20.800Z,3572.00
2023-06-03T03:02:20.890Z,3601.00
2023-06-03T03:03:21.021Z,3654.00
2023-06-03T03:04:20.925Z,3679.00
2023-06-03T03:05:20.983Z,3656.00
2023-06-03T03:06:21.017Z,3686.00
2023-06-03T03:07:21.111Z,3714.00
2023-06-03T03:08:21.141Z,3750.00
2023-06-03T03:09:21.183Z,3735.00
2023-06-03T03:10:21.251Z,3729.00
2023-06-03T03:11:21.290Z,3732.00
2023-06-03T03:12:21.357Z,3737.00
2023-06-03T03:13:21.383Z,3743.00
2023-06-03T03:14:21.450Z,3731.00
2023-06-03T03:15:21.493Z,3720.00
2023-06-03T03:16:21.576Z,3700.00
2023-06-03T03:17:21.623Z,3659.00
2023-06-03T03:18:21.641Z,3617.00
2023-06-03T03:19:21.699Z,3560.00
2023-06-03T03:20:21.745Z,3530.00
2023-06-03T03:21:21.930Z,3532.00
2023-06-03T03:22:21.870Z,3594.00
2023-06-03T03:23:21.946Z,3604.00
2023-06-03T03:24:21.998Z,3644.00
2023-06-03T03:25:22.063Z,3642.00
2023-06-03T03:26:22.084Z,3671.00
2023-06-03T03:27:22.157Z,3678.00
2023-06-03T03:28:22.181Z,3675.00
2023-06-03T03:29:22.225Z,3720.00
2023-06-03T03:30:22.283Z,3733.00
2023-06-03T03:31:22.385Z,3729.00
2023-06-03T03:32:22.448Z,3720.00
2023-06-03T03:33:22.439Z,3741.00
2023-06-03T03:34:22.481Z,3734.00
2023-06-03T03:35:22.557Z,3731.00
2023-06-03T03:36:22.587Z,3741.00
2023-06-03T03:37:22.672Z,3766.00
2023-06-03T03:38:22.682Z,3761.00
2023-06-03T03:39:22.725Z,3754.00
2023-06-03T03:40:22.782Z,3752.00
2023-06-03T03:41:22.825Z,3699.00
2023-06-03T03:42:22.886Z,3692.00
2023-06-03T03:43:22.923Z,3673.00
2023-06-03T03:44:22.983Z,3654.00
2023-06-03T03:45:23.032Z,3681.00
2023-06-03T03:46:23.160Z,3720.00
2023-06-03T03:47:23.251Z,3739.00
2023-06-03T03:48:23.169Z,3752.00
2023-06-03T03:49:23.209Z,3735.00
2023-06-03T03:50:23.259Z,3741.00
2023-06-03T03:51:23.321Z,3758.00
2023-06-03T03:52:25.511Z,3765.00
2023-06-03T03:53:23.368Z,3776.00
2023-06-03T03:54:23.344Z,3751.00
2023-06-03T03:55:23.339Z,3753.00
2023-06-03T03:56:23.530Z,3755.00
2023-06-03T03:57:23.333Z,3765.00
2023-06-03T03:58:23.320Z,3782.00
2023-06-03T03:59:23.324Z,3783.00
2023-06-03T04:00:23.324Z,3811.00
2023-06-03T04:01:23.453Z,3804.00
2023-06-03T04:02:23.379Z,3808.00
2023-06-03T04:03:23.351Z,3792.00
2023-06-03T04:04:23.333Z,3721.00
2023-06-03T04:05:23.283Z,3663.00
2023-06-03T04:06:23.272Z,3584.00
2023-06-03T04:07:23.268Z,3549.00
2023-06-03T04:08:23.261Z,3503.00
2023-06-03T04:09:23.252Z,3574.00
2023-06-03T04:10:23.267Z,3641.00
2023-06-03T04:11:23.246Z,3681.00
2023-06-03T04:12:23.234Z,3717.00
2023-06-03T04:13:23.276Z,3754.00
2023-06-03T04:14:23.213Z,3790.00
2023-06-03T04:15:23.211Z,3792.00
2023-06-03T04:16:23.281Z,3792.00
2023-06-03T04:17:23.256Z,3806.00
2023-06-03T04:18:23.222Z,3820.00
2023-06-03T04:19:23.277Z,3844.00
2023-06-03T04:20:23.320Z,3825.00
2023-06-03T04:21:23.382Z,3830.00
2023-06-03T04:22:23.432Z,3813.00
2023-06-03T04:23:23.536Z,3788.00
2023-06-03T04:24:23.523Z,3742.00
2023-06-03T04:25:23.595Z,3685.00
2023-06-03T04:26:23.646Z,3636.00
2023-06-03T04:27:23.706Z,3616.00
2023-06-03T04:28:23.764Z,3552.00
2023-06-03T04:29:23.817Z,3544.00
2023-06-03T04:30:23.878Z,3521.00
2023-06-03T04:31:23.965Z,3529.00
2023-06-03T04:32:24.039Z,3506.00
2023-06-03T04:33:24.039Z,3504.00
2023-06-03T04:34:24.100Z,3561.00
2023-06-03T04:35:24.155Z,3586.00
2023-06-03T04:36:24.193Z,3644.00
2023-06-03T04:37:24.242Z,3678.00
2023-06-03T04:38:24.288Z,3693.00
2023-06-03T04:39:24.339Z,3704.00
2023-06-03T04:40:24.406Z,3708.00
2023-06-03T04:41:24.444Z,3719.00
2023-06-03T04:42:24.523Z,3703.00
2023-06-03T04:43:24.557Z,3696.00
2023-06-03T04:44:24.605Z,3672.00
2023-06-03T04:45:24.683Z,3663.00
2023-06-03T04:46:24.761Z,3671.00
2023-06-03T04:47:24.828Z,3726.00
2023-06-03T04:48:24.814Z,3717.00
2023-06-03T04:49:24.866Z,3710.00
2023-06-03T04:50:24.918Z,3705.00
2023-06-03T04:51:24.970Z,3708.00
2023-06-03T04:52:25.023Z,3710.00
2023-06-03T04:53:25.082Z,3703.00
2023-06-03T04:54:25.260Z,3677.00
2023-06-03T04:55:25.182Z,3681.00
2023-06-03T04:56:25.230Z,3678.00
2023-06-03T04:57:25.285Z,3696.00
2023-06-03T04:58:25.330Z,3672.00
2023-06-03T04:59:25.371Z,3649.00
2023-06-03T05:00:25.421Z,3634.00
2023-06-03T05:01:25.484Z,3601.00
2023-06-03T05:02:25.531Z,3612.00
2023-06-03T05:03:25.676Z,3623.00
2023-06-03T05:04:25.595Z,3610.00
2023-06-03T05:05:25.640Z,3614.00
2023-06-03T05:06:25.686Z,3593.00
2023-06-03T05:07:25.759Z,3583.00
2023-06-03T05:08:25.785Z,3587.00
2023-06-03T05:09:25.847Z,3552.00
2023-06-03T05:10:25.903Z,3575.00
2023-06-03T05:11:25.923Z,3599.00
2023-06-03T05:12:25.976Z,3598.00
2023-06-03T05:13:26.030Z,3576.00
2023-06-03T05:14:26.084Z,3522.00
2023-06-03T05:15:26.117Z,3478.00
2023-06-03T05:16:26.205Z,3432.00
2023-06-03T05:17:26.229Z,3377.00
2023-06-03T05:18:26.284Z,3348.00
2023-06-03T05:19:26.328Z,3325.00
2023-06-03T05:20:26.362Z,3285.00
2023-06-03T05:21:26.405Z,3281.00
2023-06-03T05:22:26.450Z,3284.00
2023-06-03T05:23:26.519Z,3338.00
2023-06-03T05:24:26.539Z,3355.00
2023-06-03T05:25:26.621Z,3364.00
2023-06-03T05:26:26.648Z,3379.00
2023-06-03T05:27:26.683Z,3391.00
2023-06-03T05:28:26.725Z,3351.00
2023-06-03T05:29:26.777Z,3342.00
2023-06-03T05:30:26.820Z,3293.00
2023-06-03T05:31:26.894Z,3276.00
2023-06-03T05:32:26.965Z,3257.00
2023-06-03T05:33:26.984Z,3258.00
2023-06-03T05:34:27.037Z,3250.00
2023-06-03T05:35:27.104Z,3226.00
2023-06-03T05:36:27.145Z,3210.00
2023-06-03T05:37:27.227Z,3184.00
2023-06-03T05:38:27.260Z,3212.00
2023-06-03T05:39:27.317Z,3220.00
2023-06-03T05:40:27.353Z,3235.00
2023-06-03T05:41:27.390Z,3209.00
2023-06-03T05:42:27.432Z,3199.00
2023-06-03T05:43:27.488Z,3178.00
2023-06-03T05:44:27.524Z,3169.00
2023-06-03T05:45:27.563Z,3144.00
2023-06-03T05:46:27.709Z,3117.00
2023-06-03T05:47:27.724Z,3104.00
2023-06-03T05:48:27.703Z,3080.00
2023-06-03T05:49:27.735Z,3080.00
2023-06-03T05:50:27.780Z,3084.00
2023-06-03T05:51:27.827Z,3099.00
2023-06-03T05:52:27.877Z,3107.00
2023-06-03T05:53:27.906Z,3124.00
2023-06-03T05:54:27.949Z,3115.00
2023-06-03T05:55:27.989Z,3114.00
2023-06-03T05:56:28.066Z,3096.00
2023-06-03T05:57:28.100Z,3080.00
2023-06-03T05:58:28.161Z,3073.00
2023-06-03T05:59:28.164Z,3087.00
2023-06-03T06:00:28.223Z,3080.00
2023-06-03T06:01:28.257Z,3090.00
2023-06-03T06:02:28.355Z,3090.00
2023-06-03T06:03:28.448Z,3052.00
2023-06-03T06:04:28.439Z,3014.00
2023-06-03T06:05:28.460Z,2971.00
2023-06-03T06:06:28.513Z,2939.00
2023-06-03T06:07:28.581Z,2936.00
2023-06-03T06:08:28.641Z,3023.00
2023-06-03T06:09:28.690Z,2990.00
2023-06-03T06:10:28.792Z,3057.00
2023-06-03T06:11:28.802Z,3127.00
2023-06-03T06:12:28.876Z,3160.00
2023-06-03T06:13:28.925Z,3198.00
2023-06-03T06:14:29.074Z,3243.00
2023-06-03T06:15:29.143Z,3240.00
2023-06-03T06:16:29.115Z,3253.00
2023-06-03T06:17:29.294Z,3269.00
2023-06-03T06:18:29.206Z,3260.00
2023-06-03T06:19:29.210Z,3267.00
2023-06-03T06:20:29.238Z,3278.00
2023-06-03T06:21:29.289Z,3272.00
2023-06-03T06:22:29.325Z,3249.00
2023-06-03T06:23:29.482Z,3238.00
2023-06-03T06:24:29.377Z,3177.00
2023-06-03T06:25:29.412Z,3157.00
2023-06-03T06:26:29.472Z,3069.00
2023-06-03T06:27:29.496Z,2980.00
2023-06-03T06:28:29.542Z,2916.00
2023-06-03T06:29:29.555Z,2866.00
2023-06-03T06:30:29.598Z,2842.00
2023-06-03T06:31:29.652Z,2843.00
2023-06-03T06:32:29.723Z,2858.00
2023-06-03T06:33:29.717Z,2823.00
2023-06-03T06:34:29.732Z,2741.00
2023-06-03T06:35:29.805Z,2694.00
2023-06-03T06:36:29.820Z,2645.00
2023-06-03T06:37:29.858Z,2601.00
2023-06-03T06:38:29.897Z,2620.00
2023-06-03T06:39:29.960Z,2535.00
2023-06-03T06:40:30.007Z,2607.00
2023-06-03T06:41:30.059Z,2571.00
2023-06-03T06:42:30.121Z,2507.00
2023-06-03T06:43:30.931Z,2448.00
2023-06-03T06:44:30.227Z,2423.00
2023-06-03T06:45:30.363Z,2510.00
2023-06-03T06:46:30.575Z,2584.00
2023-06-03T06:47:30.367Z,2583.00
2023-06-03T06:48:30.389Z,2520.00
2023-06-03T06:49:30.439Z,2450.00
2023-06-03T06:50:30.497Z,2449.00
2023-06-03T06:51:30.535Z,2448.00
2023-06-03T06:52:30.602Z,2469.00
2023-06-03T06:53:30.634Z,2528.00
2023-06-03T06:54:30.676Z,2563.00
2023-06-03T06:55:30.712Z,2598.00
2023-06-03T06:56:30.754Z,2582.00
2023-06-03T06:57:30.797Z,2637.00
2023-06-03T06:58:30.833Z,2668.00
2023-06-03T06:59:30.865Z,2661.00
2023-06-03T07:00:30.905Z,2687.00
2023-06-03T07:01:30.980Z,2677.00
2023-06-03T07:02:31.036Z,2681.00
2023-06-03T07:03:31.069Z,2692.00
2023-06-03T07:04:31.051Z,2692.00
2023-06-03T07:05:31.086Z,2717.00
2023-06-03T07:06:31.128Z,2719.00
2023-06-03T07:07:31.170Z,2747.00
2023-06-03T07:08:31.202Z,2772.00
2023-06-03T07:09:31.249Z,2791.00
2023-06-03T07:10:31.285Z,2777.00
2023-06-03T07:11:31.316Z,2794.00
2023-06-03T07:12:31.340Z,2826.00
2023-06-03T07:13:31.376Z,2836.00
2023-06-03T07:14:31.412Z,2841.00
2023-06-03T07:15:31.443Z,2865.00
2023-06-03T07:16:31.519Z,2895.00
2023-06-03T07:17:31.608Z,2904.00
2023-06-03T07:18:31.548Z,2914.00
2023-06-03T07:19:31.580Z,2908.00
2023-06-03T07:20:31.613Z,2897.00
2023-06-03T07:21:31.639Z,2907.00
2023-06-03T07:22:31.668Z,2865.00
2023-06-03T07:23:31.783Z,2841.00
2023-06-03T07:24:31.850Z,2828.00
2023-06-03T07:25:31.760Z,2795.00
2023-06-03T07:26:31.784Z,2766.00
2023-06-03T07:27:31.820Z,2745.00
2023-06-03T07:28:31.866Z,2768.00
2023-06-03T07:29:31.873Z,2806.00
2023-06-03T07:30:31.916Z,2886.00
2023-06-03T07:31:31.988Z,2931.00
2023-06-03T07:32:32.015Z,2942.00
2023-06-03T07:33:32.005Z,2965.00
2023-06-03T07:34:32.025Z,2944.00
2023-06-03T07:35:32.048Z,2928.00
2023-06-03T07:36:32.059Z,2937.00
2023-06-03T07:37:32.093Z,2974.00
2023-06-03T07:38:32.118Z,2996.00
2023-06-03T07:39:32.151Z,3027.00
2023-06-03T07:40:32.176Z,3046.00
2023-06-03T07:41:32.211Z,3043.00
2023-06-03T07:42:32.227Z,3027.00
2023-06-03T07:43:32.239Z,3022.00
2023-06-03T07:44:32.259Z,3046.00
2023-06-03T07:45:32.274Z,3048.00
2023-06-03T07:46:32.370Z,3053.00
2023-06-03T07:47:32.376Z,3041.00
2023-06-03T07:48:32.348Z,3063.00
2023-06-03T07:49:32.370Z,3085.00
2023-06-03T07:50:32.390Z,3089.00
2023-06-03T07:51:32.423Z,3101.00
2023-06-03T07:52:32.417Z,3131.00
2023-06-03T07:53:34.452Z,3134.00
2023-06-03T07:54:32.455Z,3144.00
2023-06-03T07:55:32.450Z,3156.00
2023-06-03T07:56:32.482Z,3169.00
2023-06-03T07:57:32.506Z,3164.00
2023-06-03T07:58:32.524Z,3162.00
2023-06-03T07:59:32.555Z,3185.00
2023-06-03T08:00:32.557Z,3188.00
2023-06-03T08:01:32.584Z,3175.00
2023-06-03T08:02:32.702Z,3177.00
2023-06-03T08:03:32.677Z,3163.00
2023-06-03T08:04:32.656Z,3164.00
2023-06-03T08:05:32.681Z,3184.00
2023-06-03T08:06:32.710Z,3172.00
2023-06-03T08:07:32.704Z,3173.00
2023-06-03T08:08:32.718Z,3200.00
2023-06-03T08:09:32.720Z,3184.00
2023-06-03T08:10:32.762Z,3170.00
2023-06-03T08:11:32.760Z,3198.00
2023-06-03T08:12:32.777Z,3188.00
2023-06-03T08:13:32.799Z,3147.00
2023-06-03T08:14:32.816Z,3135.00
2023-06-03T08:15:32.861Z,3154.00
2023-06-03T08:16:32.912Z,3186.00
2023-06-03T08:17:32.887Z,3237.00
2023-06-03T08:18:32.893Z,3198.00
2023-06-03T08:19:32.906Z,3192.00
2023-06-03T08:20:32.902Z,3228.00
2023-06-03T08:21:32.926Z,3223.00
2023-06-03T08:22:32.939Z,3130.00
2023-06-03T08:23:33.007Z,3005.00
2023-06-03T08:24:32.973Z,2947.00
2023-06-03T08:25:32.983Z,2906.00
2023-06-03T08:26:32.989Z,2912.00
2023-06-03T08:27:33.016Z,3015.00
2023-06-03T08:28:33.047Z,3094.00
2023-06-03T08:29:33.029Z,3169.00
2023-06-03T08:30:33.061Z,3175.00
2023-06-03T08:31:33.095Z,3248.00
2023-06-03T08:32:33.143Z,3270.00
2023-06-03T08:33:33.096Z,3304.00
2023-06-03T08:34:33.103Z,3328.00
2023-06-03T08:35:33.116Z,3284.00
2023-06-03T08:36:33.151Z,3117.00
2023-06-03T08:37:33.156Z,3070.00
2023-06-03T08:38:33.167Z,3102.00
2023-06-03T08:39:33.180Z,3073.00
2023-06-03T08:40:33.196Z,2993.00
2023-06-03T08:41:33.214Z,2909.00
2023-06-03T08:42:33.216Z,2901.00
2023-06-03T08:43:33.972Z,2878.00
2023-06-03T08:44:33.237Z,2829.00
2023-06-03T08:45:33.255Z,2926.00
2023-06-03T08:46:33.295Z,3029.00
2023-06-03T08:47:33.309Z,3073.00
2023-06-03T08:48:33.282Z,3118.00
2023-06-03T08:49:33.286Z,3175.00
2023-06-03T08:50:33.296Z,3213.00
2023-06-03T08:51:33.314Z,3248.00
2023-06-03T08:52:33.344Z,3307.00
2023-06-03T08:53:33.361Z,3332.00
2023-06-03T08:54:33.376Z,3338.00
2023-06-03T08:55:33.499Z,3344.00
2023-06-03T08:56:33.400Z,3348.00
2023-06-03T08:57:33.390Z,3356.00
2023-06-03T08:58:33.415Z,3391.00
2023-06-03T08:59:33.419Z,3372.00
2023-06-03T09:00:33.487Z,3329.00
2023-06-03T09:01:33.492Z,3359.00
2023-06-03T09:02:33.538Z,3245.00
2023-06-03T09:03:33.557Z,3152.00
2023-06-03T09:04:33.463Z,3073.00
2023-06-03T09:05:33.475Z,2996.00
2023-06-03T09:06:33.500Z,2826.00
2023-06-03T09:07:33.488Z,2702.00
2023-06-03T09:08:33.511Z,2719.00
2023-06-03T09:09:33.516Z,2824.00
2023-06-03T09:10:33.548Z,3013.00
2023-06-03T09:11:33.546Z,3195.00
2023-06-03T09:12:33.553Z,3303.00
2023-06-03T09:13:33.557Z,3207.00
2023-06-03T09:14:33.567Z,3018.00
2023-06-03T09:15:33.680Z,2936.00
2023-06-03T09:16:33.631Z,2829.00
2023-06-03T09:17:33.614Z,2762.00
2023-06-03T09:18:33.620Z,2666.00
2023-06-03T09:19:33.621Z,2695.00
2023-06-03T09:20:33.645Z,2865.00
2023-06-03T09:21:33.634Z,3065.00
2023-06-03T09:22:33.684Z,3210.00
2023-06-03T09:23:33.670Z,3269.00
2023-06-03T09:24:33.697Z,3127.00
2023-06-03T09:25:33.672Z,2822.00
2023-06-03T09:26:33.674Z,2688.00
2023-06-03T09:27:33.677Z,2392.00
2023-06-03T09:28:33.694Z,2038.00
2023-06-03T09:29:33.704Z,1845.00
2023-06-03T09:30:33.707Z,1743.00
2023-06-03T09:31:33.726Z,1657.00
2023-06-03T09:32:33.736Z,1473.00
2023-06-03T09:33:33.706Z,1191.00
2023-06-03T09:34:33.721Z,1144.00
2023-06-03T09:35:33.727Z,1060.00
2023-06-03T09:36:33.733Z,991.00
2023-06-03T09:37:33.772Z,904.00
2023-06-03T09:38:33.729Z,718.00
2023-06-03T09:39:33.750Z,748.00
2023-06-03T09:40:33.739Z,801.00
2023-06-03T09:41:33.735Z,644.00
2023-06-03T09:42:33.814Z,644.00
2023-06-03T09:43:33.742Z,661.00
2023-06-03T09:44:33.740Z,701.00
2023-06-03T09:45:33.746Z,664.00
2023-06-03T09:46:33.903Z,660.00
2023-06-03T09:47:33.785Z,601.00
2023-06-03T09:48:33.783Z,590.00
2023-06-03T09:49:49.828Z,546.00
2023-06-03T09:50:34.784Z,516.00
2023-06-03T09:51:33.785Z,544.00
2023-06-03T09:52:33.842Z,532.00
2023-06-03T09:53:33.756Z,521.00
2023-06-03T09:54:33.761Z,442.00
2023-06-03T09:55:33.829Z,474.00
2023-06-03T09:56:33.739Z,515.00
2023-06-03T09:57:33.764Z,569.00
2023-06-03T09:58:33.733Z,567.00
2023-06-03T09:59:33.720Z,535.00
2023-06-03T10:00:33.726Z,545.00
2023-06-03T10:01:33.751Z,566.00
2023-06-03T10:02:33.802Z,547.00
2023-06-03T10:03:33.709Z,500.00
2023-06-03T10:04:33.686Z,507.00
2023-06-03T10:05:33.679Z,508.00
2023-06-03T10:06:33.675Z,509.00
2023-06-03T10:07:33.703Z,553.00
2023-06-03T10:08:33.736Z,562.00
2023-06-03T10:09:33.756Z,570.00
2023-06-03T10:10:33.775Z,569.00
2023-06-03T10:11:33.811Z,502.00
2023-06-03T10:12:33.874Z,541.00
2023-06-03T10:13:33.887Z,610.00
2023-06-03T10:14:33.940Z,553.00
2023-06-03T10:15:34.002Z,540.00
2023-06-03T10:16:34.099Z,619.00
2023-06-03T10:17:37.379Z,592.00
2023-06-03T10:18:34.042Z,562.00
2023-06-03T10:19:34.047Z,528.00
2023-06-03T10:20:34.029Z,606.00
2023-06-03T10:21:34.032Z,547.00
2023-06-03T10:22:34.036Z,513.00
2023-06-03T10:23:34.057Z,509.00
2023-06-03T10:24:34.017Z,561.00
2023-06-03T10:25:33.989Z,594.00
2023-06-03T10:26:33.986Z,586.00
2023-06-03T10:27:33.978Z,608.00
2023-06-03T10:28:33.982Z,572.00
2023-06-03T10:29:33.993Z,563.00
2023-06-03T10:30:34.051Z,570.00
2023-06-03T10:31:34.036Z,564.00
2023-06-03T10:32:33.979Z,535.00
2023-06-03T10:33:33.959Z,552.00
2023-06-03T10:34:33.939Z,579.00
2023-06-03T10:35:33.945Z,569.00
2023-06-03T10:36:33.925Z,524.00
2023-06-03T10:37:33.927Z,512.00
2023-06-03T10:38:34.137Z,570.00
2023-06-03T10:39:33.908Z,514.00
2023-06-03T10:40:33.902Z,499.00
2023-06-03T10:41:33.900Z,494.00
2023-06-03T10:42:33.880Z,525.00
2023-06-03T10:43:33.883Z,582.00
2023-06-03T10:44:33.869Z,572.00
2023-06-03T10:45:33.905Z,536.00
2023-06-03T10:46:33.981Z,526.00
2023-06-03T10:47:33.885Z,532.00
2023-06-03T10:48:33.868Z,555.00
2023-06-03T10:49:33.879Z,578.00
2023-06-03T10:50:33.925Z,593.00
2023-06-03T10:51:33.998Z,560.00
2023-06-03T10:52:34.036Z,518.00
2023-06-03T10:53:34.134Z,530.00
2023-06-03T10:54:34.177Z,507.00
2023-06-03T10:55:34.283Z,509.00
2023-06-03T10:56:34.280Z,606.00
2023-06-03T10:57:34.335Z,616.00
2023-06-03T10:58:34.402Z,613.00
2023-06-03T10:59:34.435Z,611.00
2023-06-03T11:00:34.499Z,613.00
2023-06-03T11:01:34.600Z,622.00
2023-06-03T11:02:34.621Z,592.00
2023-06-03T11:03:34.674Z,589.00
2023-06-03T11:04:34.723Z,571.00
2023-06-03T11:05:34.764Z,632.00
2023-06-03T11:06:34.822Z,603.00
2023-06-03T11:07:34.878Z,611.00
2023-06-03T11:08:34.941Z,491.00
2023-06-03T11:09:34.981Z,531.00
2023-06-03T11:10:35.043Z,515.00
2023-06-03T11:11:35.079Z,530.00
2023-06-03T11:12:35.141Z,552.00
2023-06-03T11:13:35.218Z,588.00
2023-06-03T11:14:35.267Z,721.00
2023-06-03T11:15:35.298Z,651.00
2023-06-03T11:16:35.414Z,731.00
2023-06-03T11:17:35.463Z,671.00
2023-06-03T11:18:35.478Z,695.00
2023-06-03T11:19:35.546Z,773.00
2023-06-03T11:20:35.582Z,899.00
2023-06-03T11:21:35.640Z,921.00
2023-06-03T11:22:35.737Z,987.00
2023-06-03T11:23:35.788Z,1003.00
2023-06-03T11:24:35.850Z,897.00
2023-06-03T11:25:35.866Z,943.00
2023-06-03T11:26:35.934Z,806.00
2023-06-03T11:27:35.992Z,867.00
2023-06-03T11:28:36.237Z,836.00
2023-06-03T11:29:36.095Z,991.00
2023-06-03T11:30:36.133Z,1030.00
2023-06-03T11:31:36.278Z,967.00
2023-06-03T11:32:36.261Z,905.00
2023-06-03T11:33:36.305Z,745.00
2023-06-03T11:34:36.352Z,847.00
2023-06-03T11:35:36.414Z,1020.00
2023-06-03T11:36:36.463Z,942.00
2023-06-03T11:37:36.555Z,970.00
2023-06-03T11:38:36.572Z,1082.00
2023-06-03T11:39:36.627Z,1075.00
2023-06-03T11:40:36.693Z,1046.00
2023-06-03T11:41:36.728Z,818.00
2023-06-03T11:42:36.797Z,752.00
2023-06-03T11:43:36.841Z,664.00
2023-06-03T11:44:36.877Z,649.00
2023-06-03T11:45:36.956Z,653.00
2023-06-03T11:46:36.972Z,654.00
2023-06-03T11:47:37.070Z,647.00
2023-06-03T11:48:37.114Z,619.00
2023-06-03T11:49:37.135Z,626.00
2023-06-03T11:50:37.152Z,636.00
2023-06-03T11:51:37.185Z,650.00
2023-06-03T11:52:37.226Z,657.00
2023-06-03T11:53:37.268Z,786.00
2023-06-03T11:54:37.317Z,722.00
2023-06-03T11:55:37.356Z,620.00
2023-06-03T11:56:37.388Z,707.00
2023-06-03T11:57:37.433Z,711.00
2023-06-03T11:58:37.482Z,655.00
2023-06-03T11:59:37.543Z,725.00
2023-06-03T12:00:37.546Z,773.00
2023-06-03T12:01:37.577Z,839.00
2023-06-03T12:02:39.250Z,826.00
2023-06-03T12:03:37.748Z,876.00
2023-06-03T12:04:37.786Z,861.00
2023-06-03T12:05:37.747Z,994.00
2023-06-03T12:06:37.818Z,1012.00
2023-06-03T12:07:37.930Z,968.00
2023-06-03T12:08:38.282Z,923.00
2023-06-03T12:09:37.904Z,1020.00
2023-06-03T12:10:37.943Z,1107.00